Time;durP1;ratioP1;P1;durP2;ratioP2;P2;SDS_P1;SDS_P2;PMS_P1;PMS_P2;Temp;Humidity;BMP_temperature;BMP_pressure;BME280_temperature;BME280_humidity;BME280_pressure;Samples;Min_cycle;Max_cycle;Signal;HPM_P1;HPM_P2
2021/07/09 00:00:57;;;;;;;1.90;1.80;;;26.40;85.30;;;;;;6195461;23;20757;-96
2021/07/09 00:03:24;;;;;;;2.43;2.20;;;26.40;85.30;;;;;;6189563;23;20418;-96
2021/07/09 00:05:51;;;;;;;2.67;2.47;;;26.40;85.20;;;;;;6189790;23;20427;-96
2021/07/09 00:08:21;;;;;;;1.93;1.83;;;26.40;85.30;;;;;;6189458;23;20489;-96
2021/07/09 00:10:50;;;;;;;2.40;2.23;;;26.30;85.10;;;;;;6189252;23;20442;-96
2021/07/09 00:13:22;;;;;;;2.30;2.20;;;26.40;85.20;;;;;;6190192;23;20417;-96
2021/07/09 00:15:52;;;;;;;2.13;2.00;;;26.40;85.20;;;;;;6190108;23;20410;-96
2021/07/09 00:18:19;;;;;;;2.17;2.07;;;26.40;85.20;;;;;;6189650;23;20948;-96
2021/07/09 00:20:47;;;;;;;1.80;1.70;;;26.40;85.20;;;;;;6189251;23;20446;-96
2021/07/09 00:23:14;;;;;;;2.03;1.93;;;26.40;85.20;;;;;;6189062;23;20437;-96
2021/07/09 00:25:41;;;;;;;2.67;2.47;;;26.40;85.20;;;;;;6188620;23;20431;-96
2021/07/09 00:28:10;;;;;;;2.10;2.00;;;26.30;85.00;;;;;;6188324;23;20461;-96
2021/07/09 00:30:40;;;;;;;1.90;1.70;;;26.40;85.20;;;;;;6189721;23;20878;-96
2021/07/09 00:33:08;;;;;;;1.90;1.80;;;26.40;85.20;;;;;;6188131;23;20398;-96
2021/07/09 00:35:37;;;;;;;2.00;1.90;;;26.40;85.10;;;;;;6189549;23;20431;-96
2021/07/09 00:38:05;;;;;;;1.80;1.70;;;26.40;85.10;;;;;;6188536;23;20399;-96
2021/07/09 00:40:34;;;;;;;1.93;1.73;;;26.30;85.10;;;;;;6188870;23;20472;-96
2021/07/09 00:43:05;;;;;;;2.10;2.00;;;26.40;85.20;;;;;;6195381;23;20418;-96
2021/07/09 00:45:33;;;;;;;2.00;1.90;;;26.40;85.10;;;;;;6214176;23;20422;-96
2021/07/09 00:48:02;;;;;;;2.03;1.93;;;26.40;85.10;;;;;;6214937;23;20402;-96
2021/07/09 00:50:30;;;;;;;1.70;1.60;;;26.40;85.10;;;;;;6215186;23;20403;-96
2021/07/09 00:52:57;;;;;;;2.00;1.80;;;26.40;85.10;;;;;;6195756;23;20415;-96
2021/07/09 00:55:26;;;;;;;1.90;1.80;;;26.40;85.20;;;;;;6188766;23;20431;-96
2021/07/09 00:58:00;;;;;;;1.87;1.73;;;26.40;85.10;;;;;;6189375;23;20411;-96
2021/07/09 01:00:31;;;;;;;1.73;1.63;;;26.40;85.20;;;;;;6188158;23;20445;-96
2021/07/09 01:03:03;;;;;;;1.90;1.80;;;26.40;85.20;;;;;;6188066;23;20421;-96
2021/07/09 01:05:32;;;;;;;2.13;2.03;;;26.40;85.10;;;;;;6188973;23;20399;-96
2021/07/09 01:07:59;;;;;;;2.00;1.90;;;26.40;85.10;;;;;;6189220;23;20411;-96
2021/07/09 01:10:27;;;;;;;1.97;1.87;;;26.40;85.20;;;;;;6188050;23;20411;-96
2021/07/09 01:12:57;;;;;;;1.80;1.70;;;26.40;85.20;;;;;;6188575;23;20889;-96
2021/07/09 01:15:24;;;;;;;2.50;2.20;;;26.40;85.20;;;;;;6188320;23;20402;-96
2021/07/09 01:17:52;;;;;;;1.77;1.67;;;26.40;85.20;;;;;;6189432;23;20414;-96
2021/07/09 01:20:23;;;;;;;2.37;2.17;;;26.40;85.20;;;;;;6187842;23;20410;-96
2021/07/09 01:22:51;;;;;;;2.07;1.97;;;26.40;85.20;;;;;;6189585;23;20486;-96
2021/07/09 01:25:22;;;;;;;1.97;1.67;;;26.40;85.20;;;;;;6188860;23;20431;-96
2021/07/09 01:27:52;;;;;;;1.60;1.50;;;26.20;84.90;;;;;;6188870;23;20403;-96
2021/07/09 01:30:29;;;;;;;1.90;1.80;;;26.30;85.90;;;;;;6188980;23;20411;-94
2021/07/09 01:32:57;;;;;;;2.30;2.20;;;26.40;85.10;;;;;;6189815;23;20862;-96
2021/07/09 01:35:26;;;;;;;1.70;1.60;;;26.40;86.00;;;;;;6188504;23;20411;-96
2021/07/09 01:38:00;;;;;;;1.63;1.53;;;26.40;85.10;;;;;;6188902;23;20418;-96
2021/07/09 01:40:30;;;;;;;1.90;1.80;;;26.40;85.20;;;;;;6187985;23;20798;-96
2021/07/09 01:42:58;;;;;;;2.13;2.03;;;26.40;85.10;;;;;;6188854;23;20501;-96
2021/07/09 01:45:28;;;;;;;1.57;1.47;;;26.40;85.20;;;;;;6188085;23;20407;-96
2021/07/09 01:47:55;;;;;;;1.93;1.83;;;26.20;85.00;;;;;;6188351;23;20482;-96
2021/07/09 01:50:25;;;;;;;1.80;1.70;;;26.40;85.20;;;;;;6187277;23;20413;-96
2021/07/09 01:52:57;;;;;;;1.90;1.80;;;26.40;85.20;;;;;;6188015;23;20918;-96
2021/07/09 01:55:24;;;;;;;1.40;1.30;;;26.40;85.20;;;;;;6188163;23;20866;-95
2021/07/09 01:57:53;;;;;;;2.00;1.90;;;26.40;85.20;;;;;;6188671;23;20411;-96
2021/07/09 02:00:25;;;;;;;1.57;1.47;;;26.40;85.20;;;;;;6188419;23;20441;-96
2021/07/09 02:02:57;;;;;;;1.70;1.60;;;26.40;85.20;;;;;;6189376;23;20442;-96
2021/07/09 02:05:26;;;;;;;2.20;2.10;;;26.30;85.00;;;;;;6189271;23;20502;-96
2021/07/09 02:07:57;;;;;;;1.93;1.83;;;26.40;85.10;;;;;;6159655;23;20466;-96
2021/07/09 02:10:25;;;;;;;1.97;1.80;;;26.30;85.00;;;;;;6158614;23;20462;-96
2021/07/09 02:12:56;;;;;;;1.80;1.70;;;26.30;85.00;;;;;;6159214;23;20415;-96
2021/07/09 02:15:28;;;;;;;1.73;1.63;;;26.30;85.00;;;;;;6158937;23;20404;-96
2021/07/09 02:18:06;;;;;;;1.80;1.70;;;26.40;85.10;;;;;;6157849;23;20403;-96
2021/07/09 02:20:35;;;;;;;2.17;2.07;;;26.40;85.10;;;;;;6153504;23;20404;-96
2021/07/09 02:23:06;;;;;;;1.87;1.77;;;26.30;85.10;;;;;;6158833;23;20442;-96
2021/07/09 02:25:33;;;;;;;2.33;2.23;;;26.30;85.20;;;;;;6159445;23;20514;-96
2021/07/09 02:28:02;;;;;;;1.80;1.70;;;26.30;85.10;;;;;;6159168;23;20469;-96
2021/07/09 02:30:32;;;;;;;2.20;2.00;;;26.20;85.00;;;;;;6158257;23;20443;-96
2021/07/09 02:32:59;;;;;;;2.17;2.07;;;26.30;85.10;;;;;;6158710;23;20415;-96
2021/07/09 02:35:32;;;;;;;2.37;2.27;;;26.30;85.10;;;;;;6158779;23;20411;-96
2021/07/09 02:37:59;;;;;;;1.80;1.70;;;26.30;85.10;;;;;;6158026;23;20700;-96
2021/07/09 02:40:31;;;;;;;2.13;1.93;;;26.30;85.10;;;;;;6158017;23;20411;-96
2021/07/09 02:43:02;;;;;;;1.60;1.50;;;26.30;85.20;;;;;;6159615;23;20439;-96
2021/07/09 02:45:30;;;;;;;1.67;1.57;;;26.20;85.00;;;;;;6160204;23;20400;-96
2021/07/09 02:48:04;;;;;;;2.23;2.13;;;26.30;85.10;;;;;;6158891;23;20439;-96
2021/07/09 02:50:34;;;;;;;1.83;1.73;;;26.30;85.20;;;;;;6158751;23;20408;-96
2021/07/09 02:53:02;;;;;;;2.00;1.80;;;26.30;85.10;;;;;;6158557;23;20743;-96
2021/07/09 02:55:29;;;;;;;2.10;2.00;;;26.30;85.10;;;;;;6159635;23;21005;-96
2021/07/09 02:58:04;;;;;;;2.30;2.10;;;26.20;85.10;;;;;;6161805;23;20408;-96
2021/07/09 03:00:32;;;;;;;1.60;1.50;;;26.30;85.10;;;;;;6169386;23;20402;-95
2021/07/09 03:03:01;;;;;;;1.80;1.70;;;26.30;85.10;;;;;;6166108;23;20922;-96
2021/07/09 03:05:28;;;;;;;2.30;2.20;;;26.20;85.00;;;;;;6161671;23;20411;-96
2021/07/09 03:07:59;;;;;;;2.30;2.10;;;26.30;85.20;;;;;;6190061;23;20414;-95
2021/07/09 03:10:27;;;;;;;1.90;1.80;;;26.30;85.10;;;;;;6191149;23;20407;-96
2021/07/09 03:12:54;;;;;;;1.50;1.40;;;26.30;85.10;;;;;;6192059;23;20472;-96
2021/07/09 03:15:21;;;;;;;1.73;1.63;;;26.30;85.10;;;;;;6191442;23;20407;-96
2021/07/09 03:21:12;;;;;;;2.30;2.10;;;26.20;85.00;;;;;;6191122;23;20362;-96
2021/07/09 03:23:40;;;;;;;1.50;1.40;;;26.30;85.30;;;;;;6190999;23;20485;-96
2021/07/09 03:26:07;;;;;;;1.90;1.80;;;26.40;85.30;;;;;;6191910;23;20406;-96
2021/07/09 03:28:36;;;;;;;1.90;1.80;;;26.30;85.20;;;;;;6191120;23;20414;-96
2021/07/09 03:31:06;;;;;;;1.60;1.50;;;26.30;85.20;;;;;;6190267;23;20415;-96
2021/07/09 03:33:33;;;;;;;1.70;1.60;;;26.30;85.20;;;;;;6191833;23;20866;-96
2021/07/09 03:36:07;;;;;;;1.80;1.70;;;26.20;85.10;;;;;;6191276;23;20435;-96
2021/07/09 03:38:37;;;;;;;2.00;1.90;;;26.20;85.10;;;;;;6191989;23;20406;-96
2021/07/09 03:41:10;;;;;;;1.53;1.43;;;26.30;85.20;;;;;;6191237;23;20414;-96
2021/07/09 03:43:38;;;;;;;1.93;1.83;;;26.30;85.20;;;;;;6191118;23;20412;-96
2021/07/09 03:46:05;;;;;;;1.60;1.50;;;26.30;85.20;;;;;;6192098;23;20774;-96
2021/07/09 03:48:32;;;;;;;1.60;1.50;;;26.30;85.20;;;;;;6191317;23;20727;-96
2021/07/09 03:51:03;;;;;;;1.87;1.77;;;26.30;85.20;;;;;;6191061;23;20403;-96
2021/07/09 03:53:30;;;;;;;1.70;1.60;;;26.10;85.00;;;;;;6190772;23;20468;-96
2021/07/09 03:55:59;;;;;;;1.60;1.50;;;26.30;85.20;;;;;;6190781;23;20439;-96
2021/07/09 03:58:26;;;;;;;1.87;1.77;;;26.30;85.20;;;;;;6190243;23;20469;-96
2021/07/09 04:00:57;;;;;;;1.67;1.57;;;26.30;85.20;;;;;;6190974;23;20424;-95
2021/07/09 04:03:24;;;;;;;1.90;1.80;;;26.30;85.20;;;;;;6191169;23;20901;-96
2021/07/09 04:05:51;;;;;;;1.93;1.83;;;26.30;85.20;;;;;;6191669;23;20438;-96
2021/07/09 04:08:19;;;;;;;1.70;1.60;;;26.30;85.20;;;;;;6190359;23;20945;-96
2021/07/09 04:10:46;;;;;;;1.40;1.30;;;26.30;85.20;;;;;;6191507;23;20417;-96
2021/07/09 04:13:20;;;;;;;2.00;1.90;;;26.30;85.20;;;;;;6192814;23;20418;-96
2021/07/09 04:15:49;;;;;;;1.73;1.63;;;26.30;85.20;;;;;;6189533;23;20434;-96
2021/07/09 04:18:19;;;;;;;1.80;1.70;;;26.30;85.20;;;;;;6189515;23;20409;-96
2021/07/09 04:20:49;;;;;;;2.20;2.10;;;26.30;85.20;;;;;;6190927;23;20494;-96
2021/07/09 04:23:16;;;;;;;1.67;1.57;;;26.10;85.00;;;;;;6190807;23;20449;-96
2021/07/09 04:25:49;;;;;;;1.40;1.30;;;26.30;85.20;;;;;;6195038;23;20430;-95
2021/07/09 05:41:08;;;;;;;13.07;11.97;;;25.50;88.90;;;;;;6155002;23;20376;-96
2021/07/09 05:43:35;;;;;;;12.37;11.17;;;25.40;88.90;;;;;;6154844;23;20435;-96
2021/07/09 05:46:03;;;;;;;11.70;10.70;;;25.40;89.20;;;;;;6153475;23;20417;-96
2021/07/09 05:48:30;;;;;;;13.93;12.53;;;25.50;89.30;;;;;;6139843;23;20434;-96
2021/07/09 05:50:57;;;;;;;14.13;12.97;;;25.30;88.90;;;;;;6139757;23;20435;-96
2021/07/09 05:53:24;;;;;;;13.47;12.20;;;25.50;89.20;;;;;;6166957;23;20418;-96
2021/07/09 05:55:51;;;;;;;13.73;12.50;;;25.50;89.10;;;;;;6163080;23;20490;-96
2021/07/09 05:58:20;;;;;;;13.33;11.03;;;25.40;89.20;;;;;;6163777;23;20442;-96
2021/07/09 06:00:47;;;;;;;14.43;13.17;;;25.50;89.50;;;;;;6162519;23;20401;-96
2021/07/09 06:03:14;;;;;;;15.17;13.60;;;25.50;89.50;;;;;;6161840;23;20443;-96
2021/07/09 06:05:41;;;;;;;15.23;13.73;;;25.40;89.40;;;;;;6162895;23;20437;-96
2021/07/09 06:08:09;;;;;;;14.13;12.70;;;25.50;89.60;;;;;;6164102;23;20493;-96
2021/07/09 06:10:37;;;;;;;13.10;12.10;;;25.50;89.60;;;;;;6173647;23;20446;-96
2021/07/09 06:13:04;;;;;;;13.07;11.90;;;25.50;89.70;;;;;;6166593;23;20410;-96
2021/07/09 06:15:34;;;;;;;13.63;12.40;;;25.50;89.90;;;;;;6161062;23;20411;-96
2021/07/09 06:18:01;;;;;;;13.70;12.60;;;25.50;89.70;;;;;;6160900;23;20442;-96
2021/07/09 06:20:28;;;;;;;16.20;11.97;;;25.50;89.50;;;;;;6160048;23;20978;-96
2021/07/09 06:22:55;;;;;;;14.70;13.47;;;25.50;89.60;;;;;;6190009;23;20522;-96
2021/07/09 06:25:22;;;;;;;15.13;13.93;;;25.50;90.00;;;;;;6190030;23;20878;-96
2021/07/09 06:27:49;;;;;;;15.23;13.93;;;25.40;90.00;;;;;;6189136;23;20752;-96
2021/07/09 06:30:17;;;;;;;15.90;13.80;;;25.40;90.10;;;;;;6189981;23;20760;-96
2021/07/09 06:32:46;;;;;;;15.27;13.80;;;25.40;90.20;;;;;;6190128;23;20404;-96
2021/07/09 06:35:13;;;;;;;16.47;15.07;;;25.40;90.10;;;;;;6190445;23;20414;-96
2021/07/09 06:37:40;;;;;;;14.80;13.33;;;25.60;90.20;;;;;;6188989;23;20427;-96
2021/07/09 06:40:10;;;;;;;15.13;13.83;;;25.50;90.10;;;;;;6189797;23;20430;-96
2021/07/09 06:42:37;;;;;;;15.40;13.97;;;25.40;90.00;;;;;;6189912;23;20444;-96
2021/07/09 06:45:05;;;;;;;16.13;14.57;;;25.50;90.30;;;;;;6189710;23;20485;-96
2021/07/09 07:01:29;;;;;;;12.23;10.97;;;25.40;90.10;;;;;;6189640;23;20452;-96
2021/07/09 07:03:56;;;;;;;10.60;9.80;;;25.50;90.10;;;;;;6194886;23;20481;-96
2021/07/09 07:06:28;;;;;;;10.27;9.47;;;25.60;90.00;;;;;;6192596;23;20496;-96
2021/07/09 07:09:41;;;;;;;8.60;7.77;;;25.50;89.80;;;;;;6194870;23;20438;-96
2021/07/09 07:12:15;;;;;;;7.60;7.00;;;25.70;89.60;;;;;;6164079;23;20954;-96
2021/07/09 07:17:50;;;;;;;6.90;6.40;;;25.80;89.10;;;;;;6180420;23;20390;-96
2021/07/09 07:20:30;;;;;;;6.50;6.00;;;25.80;88.80;;;;;;6188559;23;20430;-96
2021/07/09 07:23:16;;;;;;;6.17;5.67;;;25.80;88.70;;;;;;6188267;23;20480;-96
2021/07/09 07:29:15;;;;;;;5.67;5.17;;;25.80;88.20;;;;;;6189035;23;20377;-96
2021/07/09 07:34:53;;;;;;;5.30;4.90;;;25.90;88.10;;;;;;6185275;23;20425;-96
2021/07/09 07:37:39;;;;;;;5.47;5.07;;;25.90;87.90;;;;;;6189069;23;20414;-96
2021/07/09 07:46:55;;;;;;;4.70;4.30;;;26.00;87.60;;;;;;6133911;23;20486;-96
2021/07/09 07:55:37;;;;;;;4.20;4.00;;;26.00;87.20;;;;;;6177825;23;20405;-96
2021/07/09 08:01:32;;;;;;;4.13;3.60;;;26.10;87.00;;;;;;6189156;23;20489;-96
2021/07/09 08:11:55;;;;;;;4.23;3.93;;;26.10;86.60;;;;;;6199896;23;20369;-96
2021/07/09 08:15:24;;;;;;;4.00;3.80;;;26.10;86.60;;;;;;6202400;23;20399;-96
2021/07/09 08:49:04;;;;;;;3.63;3.33;;;26.00;86.30;;;;;;6024807;23;20411;-96
2021/07/09 09:28:05;;;;;;;3.90;3.70;;;26.30;86.60;;;;;;6132847;23;20458;-96
2021/07/09 09:30:33;;;;;;;4.07;3.77;;;26.40;86.70;;;;;;6163505;23;20770;-96
2021/07/09 09:36:02;;;;;;;4.17;3.87;;;26.50;86.50;;;;;;6162418;23;20396;-96
2021/07/09 09:41:18;;;;;;;4.40;4.00;;;26.50;86.30;;;;;;6136791;23;20766;-95
2021/07/09 09:43:46;;;;;;;5.43;5.13;;;26.50;86.20;;;;;;6162241;23;20447;-96
2021/07/09 09:52:08;;;;;;;5.87;5.47;;;26.40;86.70;;;;;;6130441;23;20432;-92
2021/07/09 09:54:35;;;;;;;5.47;5.13;;;26.50;86.80;;;;;;6127896;23;20494;-92
2021/07/09 09:57:04;;;;;;;5.13;4.73;;;26.50;86.70;;;;;;6127212;23;20421;-92
2021/07/09 09:59:32;;;;;;;5.00;4.60;;;26.50;86.50;;;;;;6127262;23;20404;-92
2021/07/09 10:02:01;;;;;;;6.23;5.63;;;26.50;86.40;;;;;;6127657;23;20489;-92
2021/07/09 10:04:29;;;;;;;7.00;4.83;;;26.50;86.30;;;;;;6127097;23;20512;-92
2021/07/09 10:06:57;;;;;;;5.40;4.97;;;26.50;86.30;;;;;;6127633;23;20805;-91
2021/07/09 10:09:27;;;;;;;5.03;4.63;;;26.50;86.30;;;;;;6128046;23;20408;-93
2021/07/09 10:11:58;;;;;;;5.03;4.73;;;26.50;86.40;;;;;;6127901;23;20952;-94
2021/07/09 10:14:27;;;;;;;4.33;3.90;;;26.50;86.30;;;;;;6127720;23;20467;-93
2021/07/09 10:16:59;;;;;;;5.27;4.87;;;26.50;86.20;;;;;;6127819;23;20420;-93
2021/07/09 10:19:29;;;;;;;5.70;3.57;;;26.50;86.10;;;;;;6128233;23;20452;-93
2021/07/09 10:21:56;;;;;;;6.20;4.50;;;26.50;86.10;;;;;;6128462;23;20444;-93
2021/07/09 10:24:24;;;;;;;3.97;3.67;;;26.50;86.10;;;;;;6128253;23;20444;-93
2021/07/09 10:26:55;;;;;;;3.80;3.60;;;26.60;86.20;;;;;;6127812;23;20461;-94
2021/07/09 10:29:28;;;;;;;4.60;4.10;;;26.60;86.10;;;;;;6147631;23;20429;-92
2021/07/09 10:31:56;;;;;;;4.60;3.97;;;26.60;86.10;;;;;;6154894;23;20396;-93
2021/07/09 10:34:34;;;;;;;4.10;3.60;;;26.60;86.10;;;;;;6155010;23;20401;-93
2021/07/09 10:37:04;;;;;;;4.20;3.80;;;26.60;86.00;;;;;;6154951;23;20411;-93
2021/07/09 10:39:45;;;;;;;5.90;3.90;;;26.60;86.00;;;;;;6154482;23;20397;-92
2021/07/09 10:42:26;;;;;;;3.80;3.50;;;26.60;85.90;;;;;;6154788;23;20393;-93
2021/07/09 10:45:14;;;;;;;3.77;3.43;;;26.60;86.80;;;;;;6154504;23;20439;-92
2021/07/09 10:47:47;;;;;;;5.30;3.27;;;26.70;86.00;;;;;;6142768;23;20407;-93
2021/07/09 10:50:16;;;;;;;3.67;3.47;;;26.70;85.90;;;;;;6147715;23;20436;-92
2021/07/09 10:52:48;;;;;;;3.30;2.83;;;26.70;85.90;;;;;;6125289;23;20423;-93
2021/07/09 10:55:43;;;;;;;3.80;3.50;;;26.70;85.90;;;;;;6125593;23;20400;-93
2021/07/09 10:58:32;;;;;;;4.00;3.60;;;26.70;85.70;;;;;;6122991;23;20414;-91
2021/07/09 11:01:12;;;;;;;3.97;3.10;;;26.70;85.10;;;;;;6124919;23;20433;-92
2021/07/09 11:03:40;;;;;;;3.30;3.10;;;26.70;85.10;;;;;;6124762;23;20457;-92
2021/07/09 11:06:12;;;;;;;3.10;2.90;;;26.70;85.20;;;;;;6125216;23;20398;-91
2021/07/09 11:08:50;;;;;;;3.70;3.43;;;26.70;85.10;;;;;;6125064;23;20412;-92
2021/07/09 11:11:19;;;;;;;3.77;3.47;;;26.70;85.10;;;;;;6124619;23;20385;-92
2021/07/09 11:13:50;;;;;;;3.50;3.20;;;26.70;85.10;;;;;;6125272;23;20394;-92
2021/07/09 11:16:20;;;;;;;2.97;2.77;;;26.70;85.10;;;;;;6100577;23;20480;-91
2021/07/09 11:18:50;;;;;;;3.67;3.43;;;26.70;85.10;;;;;;6125097;23;20440;-91
2021/07/09 11:21:21;;;;;;;4.10;3.70;;;26.70;85.10;;;;;;6124984;23;20397;-92
2021/07/09 11:24:00;;;;;;;4.43;4.00;;;26.70;85.10;;;;;;6126104;23;20448;-92
2021/07/09 11:26:28;;;;;;;7.13;5.50;;;26.70;85.00;;;;;;6126969;23;20404;-93
2021/07/09 11:28:58;;;;;;;9.97;5.27;;;26.70;85.10;;;;;;6126766;23;20437;-91
2021/07/09 11:31:36;;;;;;;6.37;5.73;;;26.70;85.10;;;;;;6126912;23;20418;-92
2021/07/09 11:34:04;;;;;;;9.13;5.90;;;26.70;85.10;;;;;;6127244;23;20382;-92
2021/07/09 11:36:40;;;;;;;7.60;5.00;;;26.70;85.10;;;;;;6126966;23;20397;-92
2021/07/09 11:39:08;;;;;;;6.27;4.90;;;26.70;85.00;;;;;;6126895;23;20400;-92
2021/07/09 11:41:46;;;;;;;7.07;5.57;;;26.60;85.00;;;;;;6126959;23;20421;-92
2021/07/09 11:44:14;;;;;;;7.93;5.30;;;26.70;85.10;;;;;;6126885;23;20459;-91
2021/07/09 11:46:42;;;;;;;9.60;6.00;;;26.70;85.10;;;;;;6126958;23;20407;-91
2021/07/09 11:49:09;;;;;;;6.07;4.67;;;26.70;85.10;;;;;;6125968;23;20429;-91
2021/07/09 11:51:35;;;;;;;6.00;5.40;;;26.70;85.10;;;;;;6108498;23;20952;-91
2021/07/09 11:54:07;;;;;;;6.53;5.33;;;26.70;85.90;;;;;;6100587;23;20911;-91
2021/07/09 11:56:40;;;;;;;6.47;5.60;;;26.70;85.00;;;;;;6100176;23;20417;-92
2021/07/09 11:59:16;;;;;;;5.50;4.90;;;26.70;85.00;;;;;;6100460;23;20484;-92
2021/07/09 12:01:43;;;;;;;5.50;4.73;;;26.70;85.00;;;;;;6099498;23;20426;-92
2021/07/09 12:04:11;;;;;;;6.23;5.43;;;26.60;85.00;;;;;;6099673;23;20445;-93
2021/07/09 12:06:37;;;;;;;6.83;5.27;;;26.60;85.00;;;;;;6100495;23;20409;-92
2021/07/09 12:09:04;;;;;;;7.17;5.30;;;26.60;85.90;;;;;;6100102;23;20797;-93
2021/07/09 12:11:31;;;;;;;4.90;4.50;;;26.60;85.10;;;;;;6100769;23;20764;-93
2021/07/09 12:14:05;;;;;;;5.47;4.63;;;26.60;85.10;;;;;;6100066;23;20795;-93
2021/07/09 12:16:34;;;;;;;6.03;5.10;;;26.60;85.00;;;;;;6099540;23;20413;-93
2021/07/09 12:19:03;;;;;;;5.40;4.53;;;26.60;85.10;;;;;;6098744;23;20484;-93
2021/07/09 12:21:29;;;;;;;6.37;4.30;;;26.60;85.10;;;;;;6100047;23;20749;-93
2021/07/09 12:24:03;;;;;;;5.83;5.20;;;26.60;85.10;;;;;;6100186;23;20536;-93
2021/07/09 12:26:31;;;;;;;6.27;4.50;;;26.60;85.00;;;;;;6100117;23;20491;-92
2021/07/09 12:28:59;;;;;;;6.33;4.90;;;26.60;85.00;;;;;;6098867;23;20413;-93
2021/07/09 12:31:26;;;;;;;4.80;4.20;;;26.60;85.00;;;;;;6099807;23;20418;-93
2021/07/09 12:33:54;;;;;;;5.50;4.57;;;26.70;84.90;;;;;;6073873;23;20413;-93
2021/07/09 12:36:22;;;;;;;5.93;4.90;;;26.70;84.90;;;;;;6099054;23;20770;-94
2021/07/09 12:39:06;;;;;;;6.17;4.90;;;26.70;85.00;;;;;;6100690;23;20508;-94
2021/07/09 12:41:34;;;;;;;6.20;5.00;;;26.70;85.00;;;;;;6099630;23;20402;-94
2021/07/09 12:44:16;;;;;;;5.70;4.87;;;26.70;85.10;;;;;;6100589;23;20452;-92
2021/07/09 12:50:17;;;;;;;6.40;4.83;;;26.80;85.20;;;;;;6099363;23;20424;-94
2021/07/09 12:52:45;;;;;;;5.50;4.50;;;26.80;85.30;;;;;;6100240;23;20464;-94
2021/07/09 12:55:40;;;;;;;5.80;4.50;;;26.80;85.30;;;;;;6099436;23;20433;-94
2021/07/09 12:58:15;;;;;;;5.90;5.30;;;26.80;85.20;;;;;;6101273;23;20911;-94
2021/07/09 13:00:45;;;;;;;6.00;4.70;;;26.80;85.30;;;;;;6099377;23;20442;-94
2021/07/09 13:03:14;;;;;;;5.90;4.50;;;26.80;85.30;;;;;;6099137;23;20441;-94
2021/07/09 13:05:44;;;;;;;4.97;4.17;;;26.80;85.20;;;;;;6100273;23;20418;-94
2021/07/09 13:08:13;;;;;;;5.00;4.37;;;26.80;85.20;;;;;;6099453;23;20489;-94
2021/07/09 13:10:41;;;;;;;5.97;4.97;;;26.90;85.20;;;;;;6099383;23;20794;-94
2021/07/09 13:13:28;;;;;;;4.60;4.20;;;26.90;85.20;;;;;;6099486;23;20481;-93
2021/07/09 13:16:12;;;;;;;4.67;4.27;;;26.90;85.10;;;;;;6099059;23;20427;-95
2021/07/09 13:18:42;;;;;;;6.53;4.90;;;26.90;86.00;;;;;;6099551;23;20430;-94
2021/07/09 13:21:13;;;;;;;5.30;4.00;;;26.90;85.10;;;;;;6099249;23;20417;-94
2021/07/09 13:23:41;;;;;;;5.20;4.70;;;26.90;85.10;;;;;;6100404;23;20493;-94
2021/07/09 13:26:16;;;;;;;4.67;4.20;;;26.90;85.10;;;;;;6099602;23;20417;-94
2021/07/09 13:28:54;;;;;;;5.00;4.10;;;26.90;85.10;;;;;;6100290;23;20443;-94
2021/07/09 13:31:21;;;;;;;5.83;4.00;;;26.90;85.20;;;;;;6099422;23;20457;-94
2021/07/09 13:33:52;;;;;;;4.70;4.30;;;26.90;85.20;;;;;;6099630;23;20515;-94
2021/07/09 13:36:31;;;;;;;4.17;3.77;;;26.90;85.20;;;;;;6100319;23;20417;-94
2021/07/09 13:38:59;;;;;;;4.30;3.90;;;26.90;85.20;;;;;;6099270;23;20503;-94
2021/07/09 13:41:27;;;;;;;5.93;3.73;;;26.90;85.30;;;;;;6098822;23;20402;-93
2021/07/09 13:43:55;;;;;;;5.40;4.23;;;26.90;85.30;;;;;;6099097;23;20523;-94
2021/07/09 13:46:23;;;;;;;4.80;4.40;;;26.90;85.30;;;;;;6099439;23;20416;-94
2021/07/09 13:48:54;;;;;;;4.73;4.33;;;26.90;85.30;;;;;;6098655;23;20464;-93
2021/07/09 13:51:23;;;;;;;4.70;4.30;;;26.90;85.30;;;;;;6098539;23;20442;-93
2021/07/09 13:53:50;;;;;;;4.90;4.10;;;26.90;85.30;;;;;;6099433;23;20445;-94
2021/07/09 13:56:18;;;;;;;8.13;4.80;;;26.90;85.30;;;;;;6098700;23;20441;-94
2021/07/09 13:58:45;;;;;;;4.40;4.07;;;26.90;85.40;;;;;;6098573;23;20516;-94
2021/07/09 14:01:13;;;;;;;4.10;3.70;;;26.90;85.30;;;;;;6098936;23;20461;-93
2021/07/09 14:03:40;;;;;;;4.77;4.20;;;26.90;85.30;;;;;;6098869;23;20913;-94
2021/07/09 14:06:09;;;;;;;4.80;4.30;;;26.90;85.40;;;;;;6098582;23;20893;-93
2021/07/09 14:08:38;;;;;;;4.77;4.37;;;26.90;85.40;;;;;;6099340;23;20414;-94
2021/07/09 14:11:05;;;;;;;4.33;3.93;;;26.90;85.40;;;;;;6099120;23;20413;-94
2021/07/09 14:13:34;;;;;;;4.33;3.90;;;26.90;85.40;;;;;;6098572;23;20445;-94
2021/07/09 14:16:02;;;;;;;5.40;3.87;;;26.90;85.40;;;;;;6099251;23;20400;-93
2021/07/09 14:18:38;;;;;;;3.83;3.53;;;26.90;85.40;;;;;;6109289;23;20425;-94
2021/07/09 14:21:10;;;;;;;4.43;4.03;;;26.90;85.40;;;;;;6115537;23;20707;-94
2021/07/09 14:23:49;;;;;;;3.80;3.50;;;26.90;85.50;;;;;;6099838;23;20415;-94
2021/07/09 14:26:21;;;;;;;3.87;3.43;;;26.90;85.50;;;;;;6100143;23;20419;-94
2021/07/09 14:28:48;;;;;;;3.57;3.27;;;26.90;85.50;;;;;;6099893;23;20405;-94
2021/07/09 14:31:22;;;;;;;3.80;3.50;;;26.80;85.40;;;;;;6099594;23;20409;-95
2021/07/09 14:34:00;;;;;;;4.03;3.73;;;26.90;85.50;;;;;;6099312;23;20406;-94
2021/07/09 14:36:27;;;;;;;3.70;3.40;;;26.80;85.40;;;;;;6099078;23;20408;-94
2021/07/09 14:39:02;;;;;;;4.80;4.30;;;26.80;85.40;;;;;;6098880;23;20413;-94
2021/07/09 14:41:31;;;;;;;3.83;3.43;;;26.80;85.40;;;;;;6099595;23;20451;-94
2021/07/09 14:44:06;;;;;;;4.17;3.77;;;26.80;85.40;;;;;;6098963;23;20800;-94
2021/07/09 14:49:54;;;;;;;4.57;4.17;;;26.70;85.20;;;;;;6099066;23;20365;-95
2021/07/09 14:52:22;;;;;;;5.40;4.10;;;26.80;85.50;;;;;;6099761;23;20394;-96
2021/07/09 14:54:50;;;;;;;3.73;3.43;;;26.80;85.40;;;;;;6099658;23;20418;-96
2021/07/09 14:57:21;;;;;;;3.50;3.20;;;26.80;85.40;;;;;;6098945;23;20417;-95
2021/07/09 14:59:48;;;;;;;5.00;3.67;;;26.80;85.40;;;;;;6099155;23;20425;-96
2021/07/09 15:02:15;;;;;;;3.53;3.23;;;26.80;85.30;;;;;;6099584;23;20433;-96
2021/07/09 15:04:43;;;;;;;4.40;4.10;;;26.80;85.30;;;;;;6098915;23;20477;-96
2021/07/09 15:07:10;;;;;;;3.90;3.60;;;26.90;85.30;;;;;;6098507;23;20441;-96
2021/07/09 15:09:38;;;;;;;3.60;3.30;;;26.90;85.30;;;;;;6098878;23;20494;-96
2021/07/09 15:12:07;;;;;;;6.87;4.00;;;26.90;85.30;;;;;;6099025;23;20419;-94
2021/07/09 15:14:35;;;;;;;3.70;3.40;;;26.90;85.20;;;;;;6099104;23;20433;-95
2021/07/09 15:17:06;;;;;;;3.77;3.47;;;26.90;85.20;;;;;;6116432;23;20402;-96
2021/07/09 15:19:34;;;;;;;4.13;3.73;;;26.80;85.10;;;;;;6124868;23;20426;-96
2021/07/09 15:22:01;;;;;;;3.90;3.50;;;26.90;85.20;;;;;;6118274;23;20414;-95
2021/07/09 15:24:28;;;;;;;5.30;3.90;;;26.90;85.10;;;;;;6115389;23;20448;-95
2021/07/09 15:26:55;;;;;;;3.80;3.50;;;26.90;85.00;;;;;;6103315;23;20492;-96
2021/07/09 15:29:24;;;;;;;4.07;3.77;;;26.90;85.00;;;;;;6101025;23;20419;-96
2021/07/09 15:31:51;;;;;;;4.00;3.70;;;26.90;85.00;;;;;;6098777;23;20472;-90
2021/07/09 15:34:18;;;;;;;4.97;3.50;;;27.00;85.10;;;;;;6097443;23;20504;-90
2021/07/09 15:36:45;;;;;;;5.03;3.70;;;26.90;84.80;;;;;;6097346;23;20416;-90
2021/07/09 15:39:12;;;;;;;3.60;3.30;;;26.90;84.80;;;;;;6097965;23;20413;-90
2021/07/09 15:42:07;;;;;;;4.87;3.90;;;27.00;84.80;;;;;;6097540;23;20486;-91
2021/07/09 15:47:11;;;;;;;4.73;3.50;;;26.80;84.70;;;;;;6109555;23;20459;-94
2021/07/09 15:50:14;;;;;;;;;;;;;;;;;;;;;
2021/07/09 15:59:29;;;;;;;5.53;3.73;;;26.90;84.50;;;;;;6188192;23;20406;-96
2021/07/09 16:30:56;;;;;;;3.73;3.40;;;26.90;85.00;;;;;;6189256;23;20477;-95
2021/07/09 16:54:40;;;;;;;3.80;3.50;;;26.80;85.20;;;;;;6150258;23;20367;-96
2021/07/09 16:57:51;;;;;;;3.20;3.00;;;26.80;85.30;;;;;;6160254;23;20404;-95
2021/07/09 17:00:52;;;;;;;3.87;3.47;;;26.90;85.30;;;;;;6160411;23;20405;-96
2021/07/09 17:13:46;;;;;;;4.13;3.80;;;26.80;85.20;;;;;;6061963;23;20411;-96
2021/07/09 17:16:56;;;;;;;3.80;3.50;;;26.80;85.10;;;;;;5984436;23;20413;-96
2021/07/09 17:19:40;;;;;;;3.47;3.27;;;26.80;85.20;;;;;;6119118;23;20755;-96
2021/07/09 17:22:56;;;;;;;3.67;3.37;;;26.80;85.20;;;;;;6158615;23;20447;-95
2021/07/09 17:25:50;;;;;;;3.93;3.40;;;26.80;85.10;;;;;;6159527;23;20444;-96
2021/07/09 17:45:08;;;;;;;3.60;3.30;;;26.80;85.30;;;;;;6159061;23;20411;-96
2021/07/09 17:48:18;;;;;;;3.43;3.23;;;26.70;85.30;;;;;;6159672;23;20443;-96
2021/07/09 18:02:15;;;;;;;3.80;3.50;;;26.70;85.30;;;;;;6003778;23;20469;-95
2021/07/09 18:04:44;;;;;;;4.90;3.30;;;26.70;85.30;;;;;;5982963;23;20748;-91
2021/07/09 18:07:13;;;;;;;4.10;3.70;;;26.70;85.40;;;;;;6011166;23;20802;-90
2021/07/09 18:09:40;;;;;;;3.17;2.97;;;26.70;84.70;;;;;;6084651;23;20407;-95
2021/07/09 18:12:08;;;;;;;3.80;3.50;;;26.70;84.30;;;;;;6157452;23;20416;-89
2021/07/09 18:14:35;;;;;;;3.93;3.70;;;26.70;84.20;;;;;;6157525;23;20403;-90